createdAt,value
2023-01-27T00:01:52.729Z,51.57
2023-01-27T00:04:19.177Z,51.73
2023-01-27T00:06:45.612Z,52.66
2023-01-27T00:09:12.032Z,52.75
2023-01-27T00:11:38.480Z,53.14
2023-01-27T00:14:04.895Z,53.82
2023-01-27T00:16:31.359Z,54.20
2023-01-27T00:18:57.849Z,54.75
2023-01-27T00:21:29.389Z,54.42
2023-01-27T00:23:55.926Z,55.10
2023-01-27T00:26:22.384Z,54.69
2023-01-27T00:28:48.955Z,53.96
2023-01-27T00:31:15.501Z,54.46
2023-01-27T00:33:41.958Z,55.35
2023-01-27T00:36:08.428Z,54.41
2023-01-27T00:38:34.888Z,54.53
2023-01-27T00:41:01.400Z,53.44
2023-01-27T00:43:27.863Z,53.60
2023-01-27T00:45:54.275Z,52.83
2023-01-27T00:48:20.729Z,52.86
2023-01-27T00:50:47.139Z,52.37
2023-01-27T00:53:13.579Z,51.68
2023-01-27T00:55:40.015Z,52.25
2023-01-27T00:58:06.416Z,52.30
2023-01-27T01:00:32.895Z,53.71
2023-01-27T01:02:59.875Z,54.06
2023-01-27T01:05:26.399Z,54.00
2023-01-27T01:07:52.874Z,54.16
2023-01-27T01:10:19.276Z,54.06
2023-01-27T01:12:45.718Z,54.10
2023-01-27T01:15:12.149Z,54.16
2023-01-27T01:17:38.603Z,54.60
2023-01-27T01:20:05.055Z,54.82
2023-01-27T01:22:31.453Z,54.96
2023-01-27T01:24:57.861Z,54.23
2023-01-27T01:27:24.275Z,54.64
2023-01-27T01:29:50.729Z,54.44
2023-01-27T01:32:17.240Z,54.65
2023-01-27T01:34:43.993Z,54.32
2023-01-27T01:37:10.464Z,53.51
2023-01-27T01:39:37.907Z,53.88
2023-01-27T01:42:04.380Z,54.13
2023-01-27T01:44:30.817Z,54.53
2023-01-27T01:46:57.322Z,55.18
2023-01-27T01:49:23.860Z,54.94
2023-01-27T01:51:50.357Z,54.96
2023-01-27T01:54:16.899Z,54.51
2023-01-27T01:56:43.330Z,53.60
2023-01-27T01:59:09.822Z,53.23
2023-01-27T02:01:36.236Z,53.26
2023-01-27T02:04:02.698Z,53.51
2023-01-27T02:06:29.166Z,53.38
2023-01-27T02:08:55.734Z,52.83
2023-01-27T02:11:22.198Z,53.04
2023-01-27T02:13:48.665Z,53.22
2023-01-27T02:16:15.207Z,53.20
2023-01-27T02:18:41.744Z,53.24
2023-01-27T02:21:08.205Z,52.86
2023-01-27T02:23:40.358Z,52.12
2023-01-27T02:26:06.850Z,52.14
2023-01-27T02:28:33.271Z,52.53
2023-01-27T02:30:59.747Z,51.86
2023-01-27T02:33:26.248Z,52.65
2023-01-27T02:35:52.646Z,52.58
2023-01-27T02:38:19.083Z,52.60
2023-01-27T02:40:45.523Z,52.03
2023-01-27T02:43:12.003Z,52.06
2023-01-27T02:45:38.550Z,51.74
2023-01-27T02:48:06.008Z,51.94
2023-01-27T02:50:32.384Z,51.67
2023-01-27T02:52:58.781Z,52.11
2023-01-27T02:55:25.232Z,51.76
2023-01-27T02:57:51.724Z,51.21
2023-01-27T03:00:18.153Z,51.23
2023-01-27T03:02:44.699Z,51.88
2023-01-27T03:05:11.723Z,51.54
2023-01-27T03:07:38.340Z,51.46
2023-01-27T03:10:04.875Z,51.90
2023-01-27T03:12:31.282Z,51.97
2023-01-27T03:14:57.706Z,51.79
2023-01-27T03:17:24.117Z,51.52
2023-01-27T03:19:50.583Z,51.38
2023-01-27T03:22:16.991Z,51.20
2023-01-27T03:24:43.515Z,51.41
2023-01-27T03:27:09.996Z,51.88
2023-01-27T03:29:37.373Z,51.90
2023-01-27T03:32:03.780Z,51.84
2023-01-27T03:34:30.164Z,52.13
2023-01-27T03:36:56.545Z,52.09
2023-01-27T03:39:31.878Z,51.79
2023-01-27T03:41:58.357Z,52.14
2023-01-27T03:44:24.811Z,51.26
2023-01-27T03:46:51.261Z,51.65
2023-01-27T03:49:17.681Z,51.65
2023-01-27T03:51:44.113Z,50.97
2023-01-27T03:54:11.590Z,50.79
2023-01-27T03:56:38.048Z,51.09
2023-01-27T03:59:04.596Z,51.00
2023-01-27T04:01:31.135Z,50.94
2023-01-27T04:03:57.670Z,51.07
2023-01-27T04:06:24.092Z,51.00
2023-01-27T04:08:50.539Z,51.37
2023-01-27T04:11:17.251Z,50.98
2023-01-27T04:13:44.754Z,51.17
2023-01-27T04:16:11.265Z,51.19
2023-01-27T04:18:37.801Z,51.76
2023-01-27T04:21:04.262Z,51.69
2023-01-27T04:23:30.716Z,51.54
2023-01-27T04:25:57.128Z,52.03
2023-01-27T04:28:41.811Z,52.17
2023-01-27T04:31:09.946Z,51.73
2023-01-27T04:33:36.426Z,51.71
2023-01-27T04:36:02.855Z,51.99
2023-01-27T04:38:29.469Z,52.26
2023-01-27T04:40:55.928Z,51.62
2023-01-27T04:43:22.369Z,52.21
2023-01-27T04:45:48.832Z,52.16
2023-01-27T04:48:15.312Z,51.88
2023-01-27T04:50:41.801Z,51.88
2023-01-27T04:53:08.245Z,52.44
2023-01-27T04:55:34.777Z,52.63
2023-01-27T04:58:01.481Z,52.31
2023-01-27T05:00:27.957Z,52.15
2023-01-27T05:02:54.430Z,52.54
2023-01-27T05:05:20.904Z,52.39
2023-01-27T05:07:47.321Z,52.88
2023-01-27T05:10:13.685Z,52.81
2023-01-27T05:12:40.302Z,52.89
2023-01-27T05:15:06.701Z,52.62
2023-01-27T05:17:33.146Z,53.30
2023-01-27T05:19:59.561Z,53.28
2023-01-27T05:22:26.079Z,52.79
2023-01-27T05:24:52.554Z,52.90
2023-01-27T05:27:18.965Z,53.27
2023-01-27T05:29:45.608Z,52.70
2023-01-27T05:32:12.105Z,52.14
2023-01-27T05:34:38.606Z,52.04
2023-01-27T05:37:05.059Z,52.43
2023-01-27T05:39:31.502Z,52.83
2023-01-27T05:41:57.954Z,52.65
2023-01-27T05:44:24.361Z,52.52
2023-01-27T05:46:50.758Z,52.42
2023-01-27T05:49:17.288Z,52.91
2023-01-27T05:51:43.666Z,52.98
2023-01-27T05:54:10.354Z,52.70
2023-01-27T05:56:36.711Z,51.78
2023-01-27T05:59:10.433Z,51.95
2023-01-27T06:01:36.951Z,52.31
2023-01-27T06:04:08.572Z,52.91
2023-01-27T06:06:34.998Z,52.77
2023-01-27T06:09:02.438Z,53.39
2023-01-27T06:11:28.946Z,53.31
2023-01-27T06:13:55.411Z,51.81
2023-01-27T06:16:21.813Z,52.01
2023-01-27T06:18:48.236Z,52.74
2023-01-27T06:21:14.589Z,52.74
2023-01-27T06:23:41.009Z,52.65
2023-01-27T06:26:07.424Z,53.04
2023-01-27T06:28:33.820Z,53.09
2023-01-27T06:31:00.413Z,52.92
2023-01-27T06:33:26.798Z,52.52
2023-01-27T06:35:53.216Z,52.78
2023-01-27T06:38:20.113Z,52.30
2023-01-27T06:40:46.500Z,52.44
2023-01-27T06:43:12.953Z,52.50
2023-01-27T06:45:39.308Z,51.94
2023-01-27T06:48:05.702Z,52.53
2023-01-27T06:50:32.258Z,52.50
2023-01-27T06:52:58.654Z,52.33
2023-01-27T06:55:34.171Z,52.36
2023-01-27T06:58:04.873Z,52.75
2023-01-27T07:00:31.453Z,52.89
2023-01-27T07:02:57.841Z,51.90
2023-01-27T07:05:24.433Z,52.23
2023-01-27T07:07:50.806Z,52.17
2023-01-27T07:10:17.219Z,52.47
2023-01-27T07:12:43.609Z,52.62
2023-01-27T07:15:10.022Z,52.51
2023-01-27T07:17:36.429Z,52.33
2023-01-27T07:20:03.037Z,52.98
2023-01-27T07:22:29.954Z,53.61
2023-01-27T07:25:00.627Z,53.50
2023-01-27T07:30:11.793Z,53.41
2023-01-27T07:32:38.330Z,53.28
2023-01-27T07:35:04.827Z,52.72
2023-01-27T07:37:31.243Z,53.07
2023-01-27T07:39:57.627Z,53.38
2023-01-27T07:42:24.031Z,53.54
2023-01-27T07:44:50.503Z,53.25
2023-01-27T07:47:16.986Z,52.96
2023-01-27T07:49:43.430Z,52.04
2023-01-27T07:52:09.792Z,52.00
2023-01-27T07:54:36.138Z,52.50
2023-01-27T07:57:02.752Z,53.04
2023-01-27T07:59:38.228Z,52.57
2023-01-27T08:02:05.674Z,53.22
2023-01-27T08:04:40.196Z,53.51
2023-01-27T08:07:17.389Z,52.74
2023-01-27T08:09:43.820Z,52.63
2023-01-27T08:14:51.541Z,53.12
2023-01-27T08:17:17.982Z,53.08
2023-01-27T08:19:44.405Z,54.17
2023-01-27T08:22:10.857Z,54.03
2023-01-27T08:24:37.312Z,53.78
2023-01-27T08:27:03.906Z,53.24
2023-01-27T08:29:30.770Z,53.16
2023-01-27T08:31:57.365Z,53.53
2023-01-27T08:34:23.803Z,53.48
2023-01-27T08:36:50.156Z,53.63
2023-01-27T08:39:16.538Z,53.52
2023-01-27T08:41:42.994Z,53.51
2023-01-27T08:44:09.441Z,53.09
2023-01-27T08:46:35.976Z,52.92
2023-01-27T08:49:02.452Z,53.35
2023-01-27T08:51:28.984Z,53.56
2023-01-27T08:53:55.419Z,53.29
2023-01-27T08:56:21.831Z,53.50
2023-01-27T08:58:48.415Z,53.52
2023-01-27T09:01:14.950Z,52.97
2023-01-27T09:03:41.400Z,53.23
2023-01-27T09:06:07.845Z,52.54
2023-01-27T09:08:34.291Z,51.93
2023-01-27T09:11:00.675Z,51.86
2023-01-27T09:13:27.127Z,51.87
2023-01-27T09:15:53.589Z,52.09
2023-01-27T09:18:20.044Z,52.78
2023-01-27T09:20:46.402Z,51.87
2023-01-27T09:23:12.747Z,52.06
2023-01-27T09:28:19.533Z,52.41
2023-01-27T09:30:46.506Z,52.52
2023-01-27T09:33:15.564Z,52.35
2023-01-27T09:35:42.061Z,51.78
2023-01-27T09:38:08.534Z,51.43
2023-01-27T09:40:34.978Z,51.10
2023-01-27T09:43:01.358Z,51.15
2023-01-27T09:45:27.795Z,51.05
2023-01-27T09:47:54.206Z,51.37
2023-01-27T09:50:20.678Z,51.36
2023-01-27T09:52:48.227Z,51.26
2023-01-27T09:55:19.097Z,51.26
2023-01-27T09:57:45.588Z,50.87
2023-01-27T10:00:12.348Z,50.54
2023-01-27T10:02:39.175Z,50.43
2023-01-27T10:05:05.593Z,50.48
2023-01-27T10:07:32.120Z,50.13
2023-01-27T10:09:58.571Z,49.92
2023-01-27T10:12:27.166Z,49.14
2023-01-27T10:14:53.636Z,49.68
2023-01-27T10:17:20.463Z,48.68
2023-01-27T10:19:54.777Z,49.28
2023-01-27T10:22:25.044Z,49.53
2023-01-27T10:24:54.010Z,49.00
2023-01-27T10:27:24.825Z,48.68
2023-01-27T10:29:51.604Z,48.73
2023-01-27T10:32:18.035Z,47.64
2023-01-27T10:34:52.250Z,48.50
2023-01-27T10:37:19.299Z,48.52
2023-01-27T10:39:47.265Z,47.66
2023-01-27T10:45:05.147Z,48.50
2023-01-27T10:47:36.019Z,48.85
2023-01-27T10:50:02.482Z,48.41
2023-01-27T10:52:28.883Z,48.32
2023-01-27T10:54:55.407Z,48.33
2023-01-27T10:57:21.850Z,48.19
2023-01-27T11:00:10.967Z,48.10
2023-01-27T11:02:34.680Z,48.07
2023-01-27T11:05:01.115Z,48.38
2023-01-27T11:07:27.551Z,48.12
2023-01-27T11:09:54.006Z,47.97
2023-01-27T11:12:21.757Z,48.34
2023-01-27T11:14:48.212Z,48.10
2023-01-27T11:17:14.590Z,47.33
2023-01-27T11:19:41.018Z,47.68
2023-01-27T11:22:09.029Z,47.82
2023-01-27T11:24:35.697Z,47.71
2023-01-27T11:27:02.186Z,47.89
2023-01-27T11:29:28.681Z,47.75
2023-01-27T11:31:55.317Z,48.00
2023-01-27T11:34:21.861Z,47.39
2023-01-27T11:36:50.799Z,47.64
2023-01-27T11:39:17.162Z,47.36
2023-01-27T11:41:43.667Z,46.99
2023-01-27T11:44:10.209Z,47.36
2023-01-27T11:46:36.687Z,48.34
2023-01-27T11:49:03.625Z,48.27
2023-01-27T11:51:30.081Z,47.00
2023-01-27T11:53:56.565Z,47.48
2023-01-27T11:56:23.016Z,47.75
2023-01-27T11:58:49.519Z,47.34
2023-01-27T12:01:17.700Z,47.67
2023-01-27T12:03:45.177Z,47.08
2023-01-27T12:06:11.589Z,47.06
2023-01-27T12:08:38.081Z,46.72
2023-01-27T12:11:04.520Z,46.86
2023-01-27T12:13:31.029Z,47.13
2023-01-27T12:15:57.520Z,48.16
2023-01-27T12:18:23.988Z,48.64
2023-01-27T12:20:50.419Z,48.08
2023-01-27T12:23:16.807Z,48.09
2023-01-27T12:25:43.492Z,47.72
2023-01-27T12:28:10.355Z,48.68
2023-01-27T12:30:36.832Z,49.25
2023-01-27T12:33:03.269Z,48.71
2023-01-27T12:35:29.746Z,48.66
2023-01-27T12:37:56.201Z,48.66
2023-01-27T12:40:22.714Z,48.41
2023-01-27T12:42:49.100Z,49.14
2023-01-27T12:45:15.533Z,49.02
2023-01-27T12:47:42.075Z,48.96
2023-01-27T12:50:08.489Z,49.61
2023-01-27T12:52:34.921Z,49.52
2023-01-27T12:55:01.345Z,49.39
2023-01-27T12:57:27.812Z,49.96
2023-01-27T12:59:54.291Z,49.17
2023-01-27T13:02:20.823Z,49.51
2023-01-27T13:04:47.324Z,49.29
2023-01-27T13:07:13.769Z,49.06
2023-01-27T13:09:40.266Z,49.02
2023-01-27T13:12:06.740Z,48.70
2023-01-27T13:14:33.426Z,49.21
2023-01-27T13:16:59.830Z,49.26
2023-01-27T13:19:26.337Z,49.07
2023-01-27T13:21:52.760Z,48.93
2023-01-27T13:24:19.207Z,49.13
2023-01-27T13:26:45.687Z,49.15
2023-01-27T13:29:12.089Z,49.26
2023-01-27T13:31:38.642Z,49.58
2023-01-27T13:34:05.174Z,49.63
2023-01-27T13:36:31.873Z,49.85
2023-01-27T13:39:02.317Z,49.72
2023-01-27T13:41:32.919Z,50.01
2023-01-27T13:43:59.366Z,50.17
2023-01-27T13:46:26.292Z,50.13
2023-01-27T13:49:02.550Z,50.58
2023-01-27T13:51:29.047Z,50.40
2023-01-27T13:56:47.521Z,50.02
2023-01-27T13:59:14.310Z,49.55
2023-01-27T14:01:46.056Z,50.40
2023-01-27T14:04:12.515Z,50.52
2023-01-27T14:06:38.974Z,51.05
2023-01-27T14:09:05.407Z,50.86
2023-01-27T14:11:31.831Z,50.93
2023-01-27T14:13:58.272Z,50.70
2023-01-27T14:16:24.663Z,50.28
2023-01-27T14:18:51.137Z,49.59
2023-01-27T14:21:19.554Z,49.63
2023-01-27T14:23:49.389Z,49.48
2023-01-27T14:26:16.139Z,49.18
2023-01-27T14:28:42.592Z,49.39
2023-01-27T14:31:09.133Z,49.30
2023-01-27T14:33:35.634Z,49.92
2023-01-27T14:36:02.089Z,50.28
2023-01-27T14:38:28.540Z,49.95
2023-01-27T14:40:54.955Z,49.74
2023-01-27T14:43:21.355Z,49.47
2023-01-27T14:45:47.810Z,48.84
2023-01-27T14:48:14.268Z,48.21
2023-01-27T14:50:40.719Z,48.50
2023-01-27T14:53:07.137Z,48.66
2023-01-27T14:55:33.602Z,48.19
2023-01-27T14:58:00.046Z,47.84
2023-01-27T15:00:26.568Z,47.17
2023-01-27T15:02:53.030Z,47.38
2023-01-27T15:05:19.543Z,48.18
2023-01-27T15:07:46.038Z,49.19
2023-01-27T15:10:12.563Z,48.85
2023-01-27T15:12:39.058Z,48.96
2023-01-27T15:15:05.668Z,49.08
2023-01-27T15:17:32.121Z,48.51
2023-01-27T15:19:58.561Z,48.06
2023-01-27T15:25:05.344Z,48.20
2023-01-27T15:27:31.796Z,48.26
2023-01-27T15:29:58.266Z,48.14
2023-01-27T15:32:24.761Z,47.27
2023-01-27T15:34:51.232Z,47.63
2023-01-27T15:37:17.713Z,48.17
2023-01-27T15:39:46.376Z,48.97
2023-01-27T15:42:14.463Z,49.76
2023-01-27T15:44:41.444Z,49.43
2023-01-27T15:47:07.880Z,49.34
2023-01-27T15:49:41.854Z,49.02
2023-01-27T15:52:09.032Z,48.96
2023-01-27T15:54:36.630Z,48.97
2023-01-27T15:57:06.018Z,49.91
2023-01-27T15:59:40.386Z,49.94
2023-01-27T16:02:08.660Z,49.57
2023-01-27T16:04:35.069Z,49.60
2023-01-27T16:07:01.726Z,49.94
2023-01-27T16:09:28.186Z,49.94
2023-01-27T16:11:54.637Z,50.61
2023-01-27T16:14:21.113Z,50.72
2023-01-27T16:16:47.679Z,50.98
2023-01-27T16:19:14.115Z,51.34
2023-01-27T16:21:40.579Z,51.40
2023-01-27T16:24:07.006Z,50.94
2023-01-27T16:26:33.454Z,51.17
2023-01-27T16:28:59.974Z,51.24
2023-01-27T16:31:26.478Z,51.41
2023-01-27T16:34:09.482Z,51.99
2023-01-27T16:36:35.965Z,52.22
2023-01-27T16:39:04.225Z,52.77
2023-01-27T16:41:31.141Z,53.14
2023-01-27T16:43:57.716Z,53.19
2023-01-27T16:46:24.096Z,53.65
2023-01-27T16:48:50.513Z,53.04
2023-01-27T16:51:16.983Z,53.63
2023-01-27T16:53:43.446Z,53.78
2023-01-27T16:56:09.874Z,53.99
2023-01-27T16:58:46.247Z,53.96
2023-01-27T17:01:14.190Z,54.10
2023-01-27T17:03:40.807Z,53.72
2023-01-27T17:06:07.301Z,53.91
2023-01-27T17:08:33.836Z,54.11
2023-01-27T17:11:00.355Z,53.90
2023-01-27T17:13:26.876Z,54.19
2023-01-27T17:15:55.537Z,54.08
2023-01-27T17:21:12.566Z,54.03
2023-01-27T17:23:40.300Z,53.38
2023-01-27T17:26:06.801Z,53.43
2023-01-27T17:28:36.337Z,53.41
2023-01-27T17:31:04.767Z,53.24
2023-01-27T17:33:32.573Z,54.01
2023-01-27T17:35:59.015Z,53.86
2023-01-27T17:38:25.528Z,53.44
2023-01-27T17:40:52.096Z,53.89
2023-01-27T17:43:18.570Z,53.19
2023-01-27T17:45:45.074Z,53.31
2023-01-27T17:48:11.534Z,53.30
2023-01-27T17:50:37.990Z,54.16
2023-01-27T17:53:04.444Z,54.64
2023-01-27T17:55:30.954Z,54.02
2023-01-27T17:57:57.408Z,53.99
2023-01-27T18:00:33.416Z,54.62
2023-01-27T18:03:00.052Z,53.97
2023-01-27T18:05:27.336Z,54.17
2023-01-27T18:07:56.613Z,54.77
2023-01-27T18:10:23.119Z,54.67
2023-01-27T18:12:49.653Z,55.02
2023-01-27T18:15:16.086Z,54.66
2023-01-27T18:17:42.603Z,54.36
2023-01-27T18:20:09.058Z,54.92
2023-01-27T18:22:35.532Z,54.08
2023-01-27T18:25:02.039Z,53.78
2023-01-27T18:27:28.638Z,53.46
2023-01-27T18:29:55.089Z,53.98
2023-01-27T18:32:21.558Z,53.55
2023-01-27T18:34:49.022Z,54.42
2023-01-27T18:37:15.547Z,54.83
2023-01-27T18:39:42.041Z,54.63
2023-01-27T18:42:09.532Z,54.49
2023-01-27T18:44:36.059Z,54.75
2023-01-27T18:47:02.553Z,54.51
2023-01-27T18:49:29.114Z,54.14
2023-01-27T18:51:55.630Z,54.33
2023-01-27T18:54:22.104Z,54.54
2023-01-27T18:56:48.598Z,54.96
2023-01-27T18:59:15.156Z,54.42
2023-01-27T19:01:41.688Z,54.07
2023-01-27T19:04:09.150Z,54.16
2023-01-27T19:06:35.607Z,53.65
2023-01-27T19:09:02.069Z,54.18
2023-01-27T19:11:28.634Z,54.43
2023-01-27T19:13:55.091Z,54.37
2023-01-27T19:16:21.564Z,54.59
2023-01-27T19:18:48.000Z,53.93
2023-01-27T19:21:14.527Z,54.26
2023-01-27T19:23:40.950Z,54.24
2023-01-27T19:26:07.390Z,53.78
2023-01-27T19:28:33.751Z,53.92
2023-01-27T19:31:00.344Z,54.14
2023-01-27T19:33:26.813Z,53.95
2023-01-27T19:35:53.210Z,53.69
2023-01-27T19:38:19.646Z,54.14
2023-01-27T19:40:46.011Z,54.42
2023-01-27T19:43:12.363Z,54.17
2023-01-27T19:45:38.728Z,53.99
2023-01-27T19:48:05.125Z,54.60
2023-01-27T19:50:31.523Z,54.29
2023-01-27T19:52:58.038Z,54.45
2023-01-27T19:55:24.465Z,54.10
2023-01-27T19:57:51.036Z,54.56
2023-01-27T20:00:17.380Z,54.08
2023-01-27T20:02:43.831Z,54.07
2023-01-27T20:07:52.119Z,54.22
2023-01-27T20:10:18.819Z,54.27
2023-01-27T20:12:45.511Z,54.24
2023-01-27T20:15:12.529Z,53.80
2023-01-27T20:17:45.837Z,53.86
2023-01-27T20:20:12.465Z,54.43
2023-01-27T20:22:41.678Z,54.15
2023-01-27T20:25:09.558Z,54.37
2023-01-27T20:27:36.147Z,54.17
2023-01-27T20:30:04.001Z,54.55
2023-01-27T20:32:33.000Z,54.90
2023-01-27T20:35:01.318Z,54.43
2023-01-27T20:37:27.903Z,54.55
2023-01-27T20:39:54.643Z,54.96
2023-01-27T20:42:25.380Z,54.99
2023-01-27T20:44:55.541Z,54.95
2023-01-27T20:47:24.091Z,55.00
2023-01-27T20:49:58.248Z,55.14
2023-01-27T20:52:29.527Z,54.99
2023-01-27T20:54:58.090Z,54.82
2023-01-27T20:57:26.238Z,55.24
2023-01-27T20:59:54.527Z,55.21
2023-01-27T21:02:25.459Z,54.83
2023-01-27T21:04:52.193Z,54.83
2023-01-27T21:07:22.243Z,55.09
2023-01-27T21:09:50.437Z,55.69
2023-01-27T21:12:17.156Z,55.75
2023-01-27T21:14:44.778Z,55.43
2023-01-27T21:19:51.905Z,55.59
2023-01-27T21:22:18.592Z,55.55
2023-01-27T21:24:45.387Z,55.38
2023-01-27T21:30:00.891Z,55.48
2023-01-27T21:32:27.503Z,55.89
2023-01-27T21:34:55.294Z,56.47
2023-01-27T21:37:22.869Z,56.68
2023-01-27T21:39:49.613Z,56.76
2023-01-27T21:42:16.397Z,56.59
2023-01-27T21:44:43.032Z,56.81
2023-01-27T21:47:09.535Z,56.44
2023-01-27T21:49:36.123Z,56.73
2023-01-27T21:52:02.657Z,57.20
2023-01-27T21:54:29.201Z,57.15
2023-01-27T21:56:55.757Z,57.11
2023-01-27T21:59:22.214Z,56.78
2023-01-27T22:01:48.668Z,56.77
2023-01-27T22:04:15.174Z,56.96
2023-01-27T22:06:41.745Z,57.55
2023-01-27T22:09:08.166Z,57.69
2023-01-27T22:11:34.617Z,58.25
2023-01-27T22:14:01.008Z,58.51
2023-01-27T22:16:27.572Z,58.43
2023-01-27T22:18:54.108Z,58.83
2023-01-27T22:21:20.615Z,59.27
2023-01-27T22:23:47.062Z,59.02
2023-01-27T22:26:13.494Z,59.64
2023-01-27T22:28:39.896Z,59.57
2023-01-27T22:31:06.431Z,59.93
2023-01-27T22:33:40.960Z,59.69
2023-01-27T22:36:07.461Z,59.77
2023-01-27T22:38:33.914Z,59.73
2023-01-27T22:41:00.254Z,59.97
2023-01-27T22:43:26.640Z,60.03
2023-01-27T22:45:53.260Z,59.59
2023-01-27T22:48:25.833Z,59.31
2023-01-27T22:50:52.282Z,59.78
2023-01-27T22:53:18.743Z,58.72
2023-01-27T22:55:45.090Z,58.25
2023-01-27T22:58:11.580Z,59.59
2023-01-27T23:00:37.967Z,59.87
2023-01-27T23:03:04.428Z,59.79
2023-01-27T23:05:30.888Z,59.60
2023-01-27T23:07:57.431Z,60.45
2023-01-27T23:10:23.978Z,59.71
2023-01-27T23:12:50.365Z,59.53
2023-01-27T23:15:17.087Z,59.38
2023-01-27T23:17:43.792Z,59.49
2023-01-27T23:20:10.270Z,59.38
2023-01-27T23:22:42.799Z,59.10
2023-01-27T23:25:09.194Z,58.75
2023-01-27T23:27:35.819Z,59.05
2023-01-27T23:30:02.348Z,58.92
2023-01-27T23:32:28.807Z,58.64
2023-01-27T23:34:58.239Z,58.73
2023-01-27T23:37:24.721Z,58.02
2023-01-27T23:39:56.194Z,58.02
2023-01-27T23:42:23.042Z,58.30
2023-01-27T23:44:53.850Z,58.52
2023-01-27T23:47:20.472Z,58.91
2023-01-27T23:49:47.039Z,58.56
2023-01-27T23:52:14.447Z,58.68
2023-01-27T23:54:40.878Z,58.30
2023-01-27T23:57:07.458Z,58.85
2023-01-27T23:59:33.936Z,58.86
